createdAt,value
2017-12-11T00:00:28.883Z,73.00
2017-12-11T00:02:55.137Z,72.10
2017-12-11T00:05:21.353Z,72.50
2017-12-11T00:07:47.579Z,72.80
2017-12-11T00:10:13.806Z,72.80
2017-12-11T00:12:40.113Z,72.90
2017-12-11T00:15:06.834Z,72.30
2017-12-11T00:17:33.062Z,72.60
2017-12-11T00:19:59.302Z,72.90
2017-12-11T00:22:37.807Z,72.90
2017-12-11T00:25:06.341Z,72.40
2017-12-11T00:27:32.538Z,72.70
2017-12-11T00:29:59.427Z,72.80
2017-12-11T00:32:25.662Z,73.60
2017-12-11T00:34:52.618Z,73.40
2017-12-11T00:37:19.577Z,72.40
2017-12-11T00:39:46.554Z,73.10
2017-12-11T00:42:12.573Z,73.10
2017-12-11T00:44:39.357Z,73.60
2017-12-11T00:47:05.592Z,73.60
2017-12-11T00:49:33.758Z,74.40
2017-12-11T00:51:59.946Z,74.00
2017-12-11T00:54:26.141Z,73.40
2017-12-11T00:56:53.106Z,72.80
2017-12-11T00:59:19.340Z,72.70
2017-12-11T01:01:46.419Z,72.40
2017-12-11T01:04:12.670Z,72.20
2017-12-11T01:06:38.931Z,73.20
2017-12-11T01:09:05.175Z,73.70
2017-12-11T01:11:31.373Z,73.90
2017-12-11T01:13:58.362Z,74.70
2017-12-11T01:16:24.614Z,74.60
2017-12-11T01:18:50.860Z,74.00
2017-12-11T01:23:48.266Z,73.50
2017-12-11T01:26:14.494Z,73.30
2017-12-11T01:28:40.737Z,74.00
2017-12-11T01:31:06.969Z,74.30
2017-12-11T01:33:33.963Z,74.80
2017-12-11T01:36:00.221Z,74.80
2017-12-11T01:38:27.186Z,74.40
2017-12-11T01:40:54.886Z,74.40
2017-12-11T01:43:21.131Z,74.70
2017-12-11T01:45:47.341Z,74.60
2017-12-11T01:48:13.569Z,73.30
2017-12-11T01:50:39.790Z,73.20
2017-12-11T01:53:06.018Z,73.30
2017-12-11T01:55:32.238Z,72.20
2017-12-11T01:57:59.197Z,73.00
2017-12-11T02:00:25.458Z,73.00
2017-12-11T02:02:51.713Z,74.10
2017-12-11T02:05:19.171Z,72.70
2017-12-11T02:07:45.402Z,72.70
2017-12-11T02:10:11.664Z,74.50
2017-12-11T02:12:37.932Z,73.00
2017-12-11T02:15:04.242Z,72.70
2017-12-11T02:17:30.514Z,73.80
2017-12-11T02:19:56.741Z,74.10
2017-12-11T02:22:23.004Z,73.90
2017-12-11T02:24:49.238Z,74.70
2017-12-11T02:27:15.509Z,75.00
2017-12-11T02:29:41.742Z,74.50
2017-12-11T02:32:08.724Z,75.40
2017-12-11T02:34:35.697Z,74.80
2017-12-11T02:37:01.938Z,74.70
2017-12-11T02:39:28.377Z,72.40
2017-12-11T02:41:54.617Z,72.40
2017-12-11T02:44:21.605Z,72.50
2017-12-11T02:46:47.842Z,72.40
2017-12-11T02:49:14.081Z,71.60
2017-12-11T02:51:40.302Z,71.10
2017-12-11T02:54:07.269Z,71.50
2017-12-11T02:56:33.526Z,71.40
2017-12-11T02:58:59.794Z,71.30
2017-12-11T03:01:28.746Z,71.00
2017-12-11T03:03:55.725Z,71.50
2017-12-11T03:06:21.970Z,72.20
2017-12-11T03:08:48.183Z,70.80
2017-12-11T03:11:14.446Z,71.20
2017-12-11T03:13:40.662Z,71.20
2017-12-11T03:16:10.239Z,70.50
2017-12-11T03:18:36.490Z,71.30
2017-12-11T03:21:02.719Z,70.30
2017-12-11T03:23:28.979Z,71.00
2017-12-11T03:25:55.169Z,70.70
2017-12-11T03:28:22.178Z,69.40
2017-12-11T03:30:48.379Z,69.40
2017-12-11T03:33:14.594Z,69.10
2017-12-11T03:35:40.801Z,70.10
2017-12-11T03:38:07.446Z,70.00
2017-12-11T03:40:33.680Z,70.60
2017-12-11T03:42:59.892Z,70.10
2017-12-11T03:45:26.171Z,71.60
2017-12-11T03:47:52.359Z,72.20
2017-12-11T03:50:19.329Z,73.10
2017-12-11T03:52:46.285Z,73.90
2017-12-11T03:55:13.239Z,75.40
2017-12-11T03:57:39.469Z,75.40
2017-12-11T04:00:05.654Z,75.90
2017-12-11T04:02:31.882Z,75.90
2017-12-11T04:04:58.813Z,76.10
2017-12-11T04:07:25.114Z,76.10
2017-12-11T04:09:51.378Z,76.10
2017-12-11T04:12:18.421Z,74.50
2017-12-11T04:14:44.650Z,75.50
2017-12-11T04:17:10.853Z,72.40
2017-12-11T04:19:37.072Z,72.10
2017-12-11T04:22:03.312Z,73.80
2017-12-11T04:24:30.322Z,75.50
2017-12-11T04:26:56.577Z,75.40
2017-12-11T04:29:22.826Z,76.40
2017-12-11T04:31:49.069Z,77.10
2017-12-11T04:34:15.306Z,75.80
2017-12-11T04:36:42.281Z,76.80
2017-12-11T04:39:08.697Z,76.80
2017-12-11T04:41:34.935Z,76.90
2017-12-11T04:44:01.584Z,74.70
2017-12-11T04:46:27.814Z,74.30
2017-12-11T04:48:54.049Z,75.20
2017-12-11T04:51:20.304Z,74.30
2017-12-11T04:53:47.262Z,76.00
2017-12-11T04:56:13.477Z,76.00
2017-12-11T04:58:39.706Z,75.90
2017-12-11T05:01:05.937Z,76.60
2017-12-11T05:03:32.198Z,76.60
2017-12-11T05:05:58.450Z,76.80
2017-12-11T05:08:25.434Z,77.90
2017-12-11T05:10:52.402Z,77.90
2017-12-11T05:13:18.678Z,77.80
2017-12-11T05:15:44.921Z,77.90
2017-12-11T05:18:11.179Z,77.40
2017-12-11T05:20:38.186Z,76.90
2017-12-11T05:23:04.509Z,76.80
2017-12-11T05:25:31.502Z,77.90
2017-12-11T05:27:58.602Z,77.90
2017-12-11T05:30:24.841Z,77.90
2017-12-11T05:32:51.146Z,78.30
2017-12-11T05:35:17.387Z,78.30
2017-12-11T05:37:43.621Z,76.90
2017-12-11T05:40:09.860Z,76.70
2017-12-11T05:42:36.101Z,77.00
2017-12-11T05:45:02.427Z,77.80
2017-12-11T05:47:29.457Z,78.00
2017-12-11T05:49:55.742Z,78.00
2017-12-11T05:52:22.002Z,77.90
2017-12-11T05:54:48.237Z,77.80
2017-12-11T05:57:14.567Z,78.40
2017-12-11T05:59:40.834Z,76.80
2017-12-11T06:02:07.081Z,75.90
2017-12-11T06:04:33.325Z,77.80
2017-12-11T06:06:59.534Z,77.80
2017-12-11T06:09:26.518Z,77.90
2017-12-11T06:11:52.738Z,78.00
2017-12-11T06:14:18.950Z,77.90
2017-12-11T06:16:45.289Z,77.70
2017-12-11T06:19:11.570Z,77.70
2017-12-11T06:21:37.881Z,79.20
2017-12-11T06:24:04.880Z,78.10
2017-12-11T06:26:31.151Z,78.10
2017-12-11T06:28:57.481Z,77.80
2017-12-11T06:31:23.719Z,77.80
2017-12-11T06:33:49.953Z,76.90
2017-12-11T06:36:16.206Z,77.10
2017-12-11T06:38:42.475Z,77.40
2017-12-11T06:41:08.754Z,76.70
2017-12-11T06:43:37.381Z,76.40
2017-12-11T06:46:03.565Z,77.10
2017-12-11T06:48:29.785Z,77.40
2017-12-11T06:50:56.029Z,76.50
2017-12-11T06:53:22.409Z,75.30
2017-12-11T06:55:49.420Z,77.40
2017-12-11T06:58:15.650Z,77.40
2017-12-11T07:00:42.173Z,77.90
2017-12-11T07:03:09.152Z,78.80
2017-12-11T07:05:35.586Z,78.70
2017-12-11T07:08:02.594Z,77.00
2017-12-11T07:10:28.826Z,76.90
2017-12-11T07:12:55.076Z,77.00
2017-12-11T07:15:21.320Z,76.90
2017-12-11T07:17:47.584Z,77.20
2017-12-11T07:20:13.806Z,75.90
2017-12-11T07:22:40.091Z,78.20
2017-12-11T07:25:07.069Z,77.90
2017-12-11T07:27:34.078Z,78.80
2017-12-11T07:30:00.338Z,78.80
2017-12-11T07:35:23.221Z,76.80
2017-12-11T07:37:49.438Z,78.00
2017-12-11T07:40:15.662Z,78.10
2017-12-11T07:42:41.899Z,78.20
2017-12-11T07:45:08.134Z,78.00
2017-12-11T07:47:34.384Z,77.10
2017-12-11T07:50:00.629Z,76.90
2017-12-11T07:52:26.907Z,76.90
2017-12-11T07:54:55.133Z,76.60
2017-12-11T07:57:21.343Z,78.00
2017-12-11T07:59:47.557Z,79.80
2017-12-11T08:02:13.802Z,78.20
2017-12-11T08:04:40.042Z,78.20
2017-12-11T08:07:06.245Z,76.80
2017-12-11T08:09:32.466Z,76.90
2017-12-11T08:11:58.714Z,77.40
2017-12-11T08:14:28.378Z,77.30
2017-12-11T08:16:54.606Z,77.20
2017-12-11T08:19:21.603Z,77.50
2017-12-11T08:21:47.876Z,77.50
2017-12-11T08:24:14.149Z,77.60
2017-12-11T08:26:40.369Z,76.80
2017-12-11T08:29:07.351Z,78.70
2017-12-11T08:31:33.614Z,78.60
2017-12-11T08:33:59.837Z,77.60
2017-12-11T08:36:26.138Z,78.50
2017-12-11T08:38:52.362Z,78.40
2017-12-11T08:41:18.604Z,79.10
2017-12-11T08:43:44.842Z,80.40
2017-12-11T08:46:11.070Z,79.40
2017-12-11T08:48:37.300Z,77.20
2017-12-11T08:51:03.574Z,77.50
2017-12-11T08:53:29.796Z,78.90
2017-12-11T08:55:56.037Z,79.90
2017-12-11T08:58:22.297Z,78.40
2017-12-11T09:00:48.513Z,79.30
2017-12-11T09:03:14.854Z,81.60
2017-12-11T09:05:41.024Z,82.20
2017-12-11T09:08:08.009Z,82.00
2017-12-11T09:10:35.001Z,82.20
2017-12-11T09:13:01.238Z,82.20
2017-12-11T09:15:27.522Z,84.00
2017-12-11T09:17:53.790Z,83.30
2017-12-11T09:20:25.069Z,83.50
2017-12-11T09:22:52.010Z,83.40
2017-12-11T09:25:18.458Z,83.30
2017-12-11T09:27:45.433Z,84.20
2017-12-11T09:30:12.873Z,84.20
2017-12-11T09:32:39.846Z,87.90
2017-12-11T09:35:06.869Z,88.70
2017-12-11T09:37:32.902Z,88.80
2017-12-11T09:39:59.095Z,90.00
2017-12-11T09:42:25.339Z,88.40
2017-12-11T09:44:56.429Z,89.70
2017-12-11T09:47:23.396Z,88.90
2017-12-11T09:49:49.629Z,88.80
2017-12-11T09:52:16.625Z,90.70
2017-12-11T09:54:42.858Z,90.60
2017-12-11T09:57:09.197Z,90.80
2017-12-11T10:02:06.606Z,91.10
2017-12-11T10:04:32.633Z,91.20
2017-12-11T10:06:59.409Z,91.80
2017-12-11T10:09:25.441Z,91.70
2017-12-11T10:11:52.237Z,91.80
2017-12-11T10:14:22.120Z,92.10
2017-12-11T10:16:48.892Z,91.70
2017-12-11T10:19:16.426Z,92.00
2017-12-11T10:21:42.466Z,92.00
2017-12-11T10:24:10.376Z,91.80
2017-12-11T10:26:36.557Z,91.80
2017-12-11T10:29:02.585Z,92.00
2017-12-11T10:31:28.733Z,92.30
2017-12-11T10:33:55.154Z,92.60
2017-12-11T10:36:21.186Z,92.20
2017-12-11T10:38:51.055Z,92.50
2017-12-11T10:41:17.082Z,92.40
2017-12-11T10:43:43.873Z,92.30
2017-12-11T10:46:09.917Z,92.30
2017-12-11T10:48:36.030Z,93.00
2017-12-11T10:51:02.085Z,92.70
2017-12-11T10:53:28.955Z,92.60
2017-12-11T10:55:54.989Z,92.70
2017-12-11T10:58:24.257Z,92.80
2017-12-11T11:00:50.477Z,92.30
2017-12-11T11:03:16.669Z,91.80
2017-12-11T11:05:42.901Z,92.70
2017-12-11T11:08:09.097Z,92.70
2017-12-11T11:10:35.309Z,93.00
2017-12-11T11:13:02.250Z,92.70
2017-12-11T11:15:29.288Z,92.80
2017-12-11T11:17:58.450Z,92.70
2017-12-11T11:20:24.668Z,92.80
2017-12-11T11:22:50.902Z,92.90
2017-12-11T11:25:17.154Z,92.80
2017-12-11T11:27:49.389Z,93.10
2017-12-11T11:30:16.353Z,92.70
2017-12-11T11:32:43.309Z,92.90
2017-12-11T11:35:12.849Z,92.90
2017-12-11T11:37:39.078Z,93.20
2017-12-11T11:40:05.362Z,93.10
2017-12-11T11:42:31.565Z,93.20
2017-12-11T11:44:57.782Z,93.10
2017-12-11T11:47:24.708Z,92.80
2017-12-11T11:49:50.921Z,92.80
2017-12-11T11:52:23.841Z,92.80
2017-12-11T11:54:50.060Z,92.80
2017-12-11T11:57:16.315Z,92.80
2017-12-11T11:59:42.545Z,92.80
2017-12-11T12:02:08.803Z,92.50
2017-12-11T12:04:35.046Z,92.30
2017-12-11T12:07:01.260Z,92.30
2017-12-11T12:09:27.465Z,92.30
2017-12-11T12:11:57.647Z,91.50
2017-12-11T12:14:23.901Z,91.90
2017-12-11T12:16:50.153Z,92.40
2017-12-11T12:19:16.453Z,92.30
2017-12-11T12:21:42.662Z,92.50
2017-12-11T12:24:08.909Z,92.60
2017-12-11T12:26:35.126Z,92.60
2017-12-11T12:29:01.362Z,92.50
2017-12-11T12:31:32.653Z,92.50
2017-12-11T12:33:58.853Z,92.30
2017-12-11T12:36:25.088Z,92.50
2017-12-11T12:38:51.345Z,92.80
2017-12-11T12:41:17.578Z,92.30
2017-12-11T12:43:44.554Z,92.70
2017-12-11T12:46:10.787Z,92.70
2017-12-11T12:48:37.069Z,92.40
2017-12-11T12:51:05.074Z,92.10
2017-12-11T12:53:34.154Z,92.60
2017-12-11T12:56:00.418Z,92.60
2017-12-11T12:58:26.654Z,91.90
2017-12-11T13:00:52.864Z,91.90
2017-12-11T13:03:19.120Z,92.00
2017-12-11T13:05:45.370Z,91.90
2017-12-11T13:08:11.640Z,91.90
2017-12-11T13:10:40.251Z,91.80
2017-12-11T13:13:06.493Z,92.30
2017-12-11T13:15:32.751Z,91.90
2017-12-11T13:17:59.034Z,92.30
2017-12-11T13:20:25.298Z,92.40
2017-12-11T13:22:52.438Z,92.60
2017-12-11T13:25:18.741Z,92.60
2017-12-11T13:27:49.986Z,92.30
2017-12-11T13:30:16.978Z,92.50
2017-12-11T13:32:43.234Z,92.50
2017-12-11T13:35:09.516Z,92.10
2017-12-11T13:37:35.762Z,92.80
2017-12-11T13:40:02.050Z,92.80
2017-12-11T13:42:28.311Z,92.60
2017-12-11T13:44:54.573Z,92.50
2017-12-11T13:47:24.990Z,92.40
2017-12-11T13:49:51.214Z,92.40
2017-12-11T13:52:17.457Z,92.40
2017-12-11T13:54:43.677Z,92.00
2017-12-11T13:57:09.916Z,91.60
2017-12-11T13:59:36.176Z,92.40
2017-12-11T14:02:02.481Z,92.40
2017-12-11T14:04:29.466Z,91.80
2017-12-11T14:07:00.530Z,91.80
2017-12-11T14:09:26.807Z,91.00
2017-12-11T14:11:53.068Z,92.10
2017-12-11T14:14:20.129Z,91.80
2017-12-11T14:16:46.381Z,91.80
2017-12-11T14:19:12.634Z,92.20
2017-12-11T14:21:38.886Z,91.90
2017-12-11T14:24:05.226Z,91.40
2017-12-11T14:26:38.379Z,91.10
2017-12-11T14:29:04.621Z,91.20
2017-12-11T14:31:30.983Z,92.10
2017-12-11T14:33:57.950Z,91.50
2017-12-11T14:36:24.201Z,91.50
2017-12-11T14:38:50.401Z,92.00
2017-12-11T14:41:16.668Z,91.70
2017-12-11T14:43:46.909Z,91.60
2017-12-11T14:46:13.914Z,90.90
2017-12-11T14:48:40.191Z,90.90
2017-12-11T14:51:06.407Z,90.60
2017-12-11T14:53:32.661Z,90.50
2017-12-11T14:55:58.877Z,91.40
2017-12-11T14:58:25.177Z,90.70
2017-12-11T15:00:58.050Z,90.10
2017-12-11T15:03:24.313Z,90.10
2017-12-11T15:05:50.566Z,91.00
2017-12-11T15:08:16.890Z,91.30
2017-12-11T15:10:43.252Z,90.80
2017-12-11T15:13:09.557Z,90.00
2017-12-11T15:15:40.827Z,90.00
2017-12-11T15:18:07.081Z,88.30
2017-12-11T15:20:33.334Z,90.70
2017-12-11T15:22:59.697Z,90.10
2017-12-11T15:25:25.968Z,90.80
2017-12-11T15:27:52.302Z,90.30
2017-12-11T15:30:23.641Z,90.90
2017-12-11T15:32:50.093Z,89.80
2017-12-11T15:35:16.543Z,91.40
2017-12-11T15:37:42.798Z,91.40
2017-12-11T15:40:09.050Z,90.80
2017-12-11T15:42:35.321Z,90.80
2017-12-11T15:45:03.631Z,92.00
2017-12-11T15:47:30.677Z,91.50
2017-12-11T15:49:56.899Z,91.50
2017-12-11T15:52:24.974Z,90.30
2017-12-11T15:54:51.254Z,91.20
2017-12-11T15:57:18.259Z,90.50
2017-12-11T15:59:46.210Z,90.50
2017-12-11T16:02:12.530Z,90.30
2017-12-11T16:04:38.746Z,88.50
2017-12-11T16:07:06.295Z,88.60
2017-12-11T16:09:33.461Z,90.40
2017-12-11T16:12:00.234Z,90.30
2017-12-11T16:14:26.469Z,90.20
2017-12-11T16:16:52.769Z,90.30
2017-12-11T16:19:19.017Z,89.00
2017-12-11T16:21:45.257Z,88.00
2017-12-11T16:24:11.509Z,87.20
2017-12-11T16:26:38.456Z,88.20
2017-12-11T16:29:04.740Z,88.20
2017-12-11T16:31:31.070Z,86.60
2017-12-11T16:33:57.393Z,85.10
2017-12-11T16:36:25.174Z,84.70
2017-12-11T16:38:51.601Z,84.50
2017-12-11T16:41:19.984Z,84.40
2017-12-11T16:43:47.235Z,83.90
2017-12-11T16:46:13.632Z,83.40
2017-12-11T16:48:39.962Z,83.80
2017-12-11T16:51:06.322Z,84.50
2017-12-11T16:53:36.220Z,85.80
2017-12-11T16:56:02.431Z,85.90
2017-12-11T16:58:28.877Z,85.40
2017-12-11T17:00:55.970Z,85.30
2017-12-11T17:03:22.209Z,85.20
2017-12-11T17:05:48.425Z,86.20
2017-12-11T17:08:14.545Z,86.20
2017-12-11T17:10:41.742Z,86.00
2017-12-11T17:13:08.844Z,86.40
2017-12-11T17:15:35.549Z,86.40
2017-12-11T17:18:01.856Z,85.80
2017-12-11T17:20:28.296Z,87.20
2017-12-11T17:22:54.631Z,88.40
2017-12-11T17:25:20.972Z,87.70
2017-12-11T17:27:47.344Z,88.10
2017-12-11T17:30:13.673Z,89.50
2017-12-11T17:32:40.050Z,89.70
2017-12-11T17:35:07.117Z,90.00
2017-12-11T17:37:33.474Z,90.00
2017-12-11T17:39:59.813Z,90.50
2017-12-11T17:42:29.179Z,90.80
2017-12-11T17:44:55.520Z,90.60
2017-12-11T17:47:21.836Z,90.80
2017-12-11T17:49:48.185Z,91.80
2017-12-11T17:52:14.663Z,92.30
2017-12-11T17:54:40.969Z,91.90
2017-12-11T17:57:14.134Z,92.20
2017-12-11T17:59:40.469Z,91.80
2017-12-11T18:02:06.826Z,91.30
2017-12-11T18:04:33.959Z,90.30
2017-12-11T18:07:00.115Z,90.30
2017-12-11T18:09:26.248Z,89.10
2017-12-11T18:11:57.273Z,90.20
2017-12-11T18:14:23.635Z,90.60
2017-12-11T18:16:50.059Z,89.90
2017-12-11T18:19:16.474Z,88.50
2017-12-11T18:21:42.803Z,87.70
2017-12-11T18:24:09.905Z,87.40
2017-12-11T18:26:43.189Z,87.60
2017-12-11T18:29:09.594Z,87.90
2017-12-11T18:31:36.121Z,85.60
2017-12-11T18:34:03.232Z,86.00
2017-12-11T18:36:29.649Z,85.90
2017-12-11T18:38:56.765Z,85.80
2017-12-11T18:41:23.141Z,85.60
2017-12-11T18:43:53.315Z,85.20
2017-12-11T18:46:19.467Z,85.80
2017-12-11T18:48:45.640Z,84.90
2017-12-11T18:51:11.777Z,83.20
2017-12-11T18:53:38.104Z,83.80
2017-12-11T18:56:05.211Z,81.50
2017-12-11T18:58:31.352Z,81.50
2017-12-11T19:00:58.249Z,84.40
2017-12-11T19:03:27.548Z,84.30
2017-12-11T19:05:53.904Z,82.30
2017-12-11T19:08:20.269Z,81.20
2017-12-11T19:10:46.641Z,82.60
2017-12-11T19:13:14.457Z,82.90
2017-12-11T19:15:40.792Z,82.90
2017-12-11T19:18:07.144Z,82.40
2017-12-11T19:20:33.625Z,83.10
2017-12-11T19:23:00.063Z,83.00
2017-12-11T19:25:26.453Z,82.90
2017-12-11T19:27:54.209Z,84.20
2017-12-11T19:30:20.581Z,84.10
2017-12-11T19:32:46.884Z,86.50
2017-12-11T19:35:13.208Z,87.70
2017-12-11T19:37:42.297Z,89.40
2017-12-11T19:40:08.688Z,89.90
2017-12-11T19:42:35.093Z,90.30
2017-12-11T19:45:01.442Z,89.70
2017-12-11T19:47:27.828Z,89.60
2017-12-11T19:49:54.181Z,88.90
2017-12-11T19:52:20.568Z,87.80
2017-12-11T19:54:47.130Z,87.30
2017-12-11T19:57:13.448Z,87.30
2017-12-11T19:59:44.712Z,86.10
2017-12-11T20:02:11.053Z,85.60
2017-12-11T20:04:37.368Z,85.70
2017-12-11T20:07:03.707Z,86.50
2017-12-11T20:09:30.227Z,86.40
2017-12-11T20:11:56.645Z,86.50
2017-12-11T20:14:23.177Z,88.10
2017-12-11T20:16:49.634Z,87.90
2017-12-11T20:19:17.045Z,90.20
2017-12-11T20:21:43.834Z,90.20
2017-12-11T20:24:10.177Z,90.60
2017-12-11T20:26:36.534Z,90.40
2017-12-11T20:29:03.685Z,90.80
2017-12-11T20:31:30.031Z,90.80
2017-12-11T20:33:56.328Z,90.60
2017-12-11T20:36:22.753Z,90.90
2017-12-11T20:38:49.422Z,90.90
2017-12-11T20:41:15.754Z,90.90
2017-12-11T20:43:42.065Z,90.90
2017-12-11T20:46:08.487Z,90.70
2017-12-11T20:48:34.910Z,90.00
2017-12-11T20:51:01.363Z,90.00
2017-12-11T20:53:27.721Z,90.20
2017-12-11T20:55:54.100Z,89.70
2017-12-11T20:58:20.529Z,89.30
2017-12-11T21:00:47.649Z,89.20
2017-12-11T21:03:13.997Z,89.10
2017-12-11T21:05:40.354Z,88.50
2017-12-11T21:08:06.734Z,90.10
2017-12-11T21:10:33.088Z,89.80
2017-12-11T21:12:59.422Z,89.50
2017-12-11T21:15:26.105Z,89.60
2017-12-11T21:17:53.234Z,88.90
2017-12-11T21:20:19.564Z,88.80
2017-12-11T21:22:45.964Z,88.90
2017-12-11T21:25:15.679Z,88.90
2017-12-11T21:27:42.758Z,88.00
2017-12-11T21:30:10.697Z,87.80
2017-12-11T21:32:37.099Z,87.80
2017-12-11T21:35:03.232Z,89.00
2017-12-11T21:37:29.563Z,88.70
2017-12-11T21:39:55.875Z,89.40
2017-12-11T21:42:22.218Z,87.90
2017-12-11T21:44:48.540Z,87.80
2017-12-11T21:47:15.590Z,89.30
2017-12-11T21:49:41.997Z,89.20
2017-12-11T21:52:08.942Z,89.40
2017-12-11T21:54:35.060Z,89.30
2017-12-11T21:57:01.365Z,90.20
2017-12-11T21:59:28.393Z,90.60
2017-12-11T22:01:56.488Z,90.50
2017-12-11T22:04:25.846Z,90.50
2017-12-11T22:06:52.389Z,90.10
2017-12-11T22:09:18.805Z,90.10
2017-12-11T22:11:45.214Z,89.60
2017-12-11T22:14:11.556Z,89.40
2017-12-11T22:16:37.884Z,89.10
2017-12-11T22:19:05.287Z,89.20
2017-12-11T22:21:31.651Z,89.10
2017-12-11T22:24:04.152Z,89.80
2017-12-11T22:26:30.276Z,90.10
2017-12-11T22:28:56.441Z,90.00
2017-12-11T22:31:23.347Z,90.90
2017-12-11T22:33:49.476Z,90.50
2017-12-11T22:36:15.866Z,90.20
2017-12-11T22:38:43.232Z,90.10
2017-12-11T22:41:09.584Z,90.10
2017-12-11T22:43:36.215Z,90.30
2017-12-11T22:46:03.596Z,90.10
2017-12-11T22:48:29.947Z,89.60
2017-12-11T22:50:56.333Z,89.70
2017-12-11T22:53:25.246Z,88.80
2017-12-11T22:55:51.556Z,88.40
2017-12-11T22:58:17.728Z,87.70
2017-12-11T23:00:43.942Z,87.70
2017-12-11T23:03:10.067Z,87.00
2017-12-11T23:05:36.281Z,87.60
2017-12-11T23:08:02.430Z,87.00
2017-12-11T23:10:28.580Z,87.30
2017-12-11T23:12:54.925Z,87.00
2017-12-11T23:15:22.747Z,86.90
2017-12-11T23:17:49.889Z,87.60
2017-12-11T23:20:16.072Z,87.40
2017-12-11T23:22:42.379Z,87.00
2017-12-11T23:25:08.712Z,86.10
2017-12-11T23:27:35.036Z,87.50
2017-12-11T23:30:01.432Z,88.00
2017-12-11T23:32:27.752Z,87.30
2017-12-11T23:34:54.189Z,86.30
2017-12-11T23:37:20.552Z,86.30
2017-12-11T23:39:46.946Z,87.50
2017-12-11T23:42:13.300Z,89.40
2017-12-11T23:44:39.605Z,90.30
2017-12-11T23:47:05.918Z,90.40
2017-12-11T23:49:32.372Z,90.00
2017-12-11T23:51:58.688Z,90.80
2017-12-11T23:54:32.866Z,90.70
2017-12-11T23:56:59.236Z,90.70
2017-12-11T23:59:25.567Z,90.40
